Time;durP1;ratioP1;P1;durP2;ratioP2;P2;SDS_P1;SDS_P2;PMS_P1;PMS_P2;Temp;Humidity;BMP_temperature;BMP_pressure;BME280_temperature;BME280_humidity;BME280_pressure;Samples;Min_cycle;Max_cycle;Signal;HPM_P1;HPM_P2
2022/12/27 00:01:53;;;;;;;;;;;;;;;2.55;100.00;101691.25;5066062;28;19927;-80
2022/12/27 00:04:18;;;;;;;;;;;;;;;2.51;100.00;101692.38;5047113;28;19916;-80
2022/12/27 00:06:43;;;;;;;;;;;;;;;2.53;100.00;101696.56;5047005;28;19924;-80
2022/12/27 00:09:09;;;;;;;;;;;;;;;2.56;100.00;101690.34;5064414;28;19969;-80
2022/12/27 00:11:34;;;;;;;;;;;;;;;2.63;100.00;101695.16;5064801;28;19920;-81
2022/12/27 00:14:01;;;;;;;;;;;;;;;2.64;100.00;101696.03;5064579;28;19947;-80
2022/12/27 00:16:42;;;;;;;;;;;;;;;2.72;100.00;101698.22;5066192;22;19955;-83
2022/12/27 00:19:07;;;;;;;;;;;;;;;2.70;100.00;101694.84;5052303;28;19928;-81
2022/12/27 00:21:33;;;;;;;;;;;;;;;2.68;100.00;101705.38;5046133;28;19932;-81
2022/12/27 00:23:59;;;;;;;;;;;;;;;2.62;100.00;101703.91;5062035;28;19924;-81
2022/12/27 00:26:29;;;;;;;;;;;;;;;2.59;100.00;101708.44;5061671;28;20038;-81
2022/12/27 00:28:55;;;;;;;;;;;;;;;2.57;100.00;101707.66;5061487;28;19939;-81
2022/12/27 00:31:21;;;;;;;;;;;;;;;2.61;100.00;101694.44;5060946;28;20363;-81
2022/12/27 00:33:47;;;;;;;;;;;;;;;2.62;100.00;101701.31;5061437;28;19920;-82
2022/12/27 00:36:15;;;;;;;;;;;;;;;2.63;100.00;101702.16;5061862;28;19985;-81
2022/12/27 00:38:40;;;;;;;;;;;;;;;2.63;100.00;101708.19;5062967;28;19977;-81
2022/12/27 00:41:06;;;;;;;;;;;;;;;2.64;100.00;101704.69;5060770;28;20357;-81
2022/12/27 00:43:31;;;;;;;;;;;;;;;2.70;100.00;101710.50;5044371;28;19921;-82
2022/12/27 00:45:56;;;;;;;;;;;;;;;2.78;100.00;101714.41;5042949;28;19929;-81
2022/12/27 00:48:22;;;;;;;;;;;;;;;2.86;100.00;101717.47;5060422;28;19933;-81
2022/12/27 00:50:47;;;;;;;;;;;;;;;2.92;100.00;101721.53;5067563;28;19967;-81
2022/12/27 00:53:13;;;;;;;;;;;;;;;2.92;100.00;101728.50;5061737;28;19920;-81
2022/12/27 00:55:41;;;;;;;;;;;;;;;2.93;100.00;101732.78;5061977;28;20042;-81
2022/12/27 00:58:06;;;;;;;;;;;;;;;2.92;100.00;101731.97;5060261;28;19921;-81
2022/12/27 01:00:31;;;;;;;;;;;;;;;2.85;100.00;101722.75;5061783;28;20442;-81
2022/12/27 01:02:56;;;;;;;;;;;;;;;2.85;100.00;101723.63;5043610;28;19932;-81
2022/12/27 01:05:22;;;;;;;;;;;;;;;2.82;100.00;101722.91;5066692;28;19928;-82
2022/12/27 01:07:47;;;;;;;;;;;;;;;2.81;100.00;101726.44;5059307;28;19920;-81
2022/12/27 01:10:13;;;;;;;;;;;;;;;2.77;100.00;101736.19;5061953;28;19978;-82
2022/12/27 01:12:38;;;;;;;;;;;;;;;2.77;100.00;101733.59;5061225;28;19970;-81
2022/12/27 01:15:04;;;;;;;;;;;;;;;2.81;100.00;101736.84;5059314;28;19925;-82
2022/12/27 01:17:29;;;;;;;;;;;;;;;2.86;100.00;101738.31;5058518;28;19925;-81
2022/12/27 01:19:55;;;;;;;;;;;;;;;2.94;100.00;101742.28;5067404;28;20621;-81
2022/12/27 01:22:20;;;;;;;;;;;;;;;2.98;100.00;101736.00;5061677;28;20023;-81
2022/12/27 01:24:46;;;;;;;;;;;;;;;3.05;100.00;101751.28;5061491;28;20519;-81
2022/12/27 01:27:11;;;;;;;;;;;;;;;3.10;100.00;101758.84;5050078;28;19921;-82
2022/12/27 01:29:36;;;;;;;;;;;;;;;3.16;100.00;101763.75;5047181;28;20019;-81
2022/12/27 01:32:02;;;;;;;;;;;;;;;3.19;100.00;101760.97;5031439;28;19929;-82
2022/12/27 01:34:27;;;;;;;;;;;;;;;3.25;100.00;101778.09;5046700;28;19920;-81
2022/12/27 01:36:52;;;;;;;;;;;;;;;3.27;100.00;101771.03;5046682;28;19936;-81
2022/12/27 01:39:17;;;;;;;;;;;;;;;3.32;100.00;101778.63;5046301;28;19924;-81
2022/12/27 01:44:41;;;;;;;;;;;;;;;3.41;100.00;101785.94;5048230;28;19943;-81
2022/12/27 01:47:22;;;;;;;;;;;;;;;3.45;100.00;101805.75;5047889;28;19974;-82
2022/12/27 01:49:47;;;;;;;;;;;;;;;3.48;100.00;101802.97;5047032;28;19924;-82
2022/12/27 01:52:13;;;;;;;;;;;;;;;3.43;100.00;101797.16;5047684;28;19990;-82
2022/12/27 01:54:39;;;;;;;;;;;;;;;3.41;100.00;101812.03;5029786;28;20568;-82
2022/12/27 01:57:04;;;;;;;;;;;;;;;3.42;100.00;101826.75;5045807;28;20509;-82
2022/12/27 01:59:30;;;;;;;;;;;;;;;3.41;100.00;101845.97;5044386;28;20014;-81
2022/12/27 02:01:56;;;;;;;;;;;;;;;3.39;100.00;101842.59;5046553;28;20749;-81
2022/12/27 02:04:25;;;;;;;;;;;;;;;3.42;100.00;101847.66;5046608;28;19923;-83
2022/12/27 02:06:50;;;;;;;;;;;;;;;3.46;100.00;101843.94;5046212;28;20730;-81
2022/12/27 02:09:22;;;;;;;;;;;;;;;3.46;100.00;101844.81;5045413;28;19920;-81
2022/12/27 02:11:50;;;;;;;;;;;;;;;3.47;100.00;101846.50;5046377;28;19921;-82
2022/12/27 02:14:18;;;;;;;;;;;;;;;3.48;100.00;101847.34;5046035;28;20012;-82
2022/12/27 02:16:43;;;;;;;;;;;;;;;3.51;100.00;101849.81;5045274;28;19924;-82
2022/12/27 02:19:35;;;;;;;;;;;;;;;3.53;100.00;101850.56;5029040;28;19924;-81
2022/12/27 02:22:11;;;;;;;;;;;;;;;3.58;100.00;101856.38;5042190;28;20695;-82
2022/12/27 02:24:51;;;;;;;;;;;;;;;3.59;100.00;101857.22;5046353;28;19920;-82
2022/12/27 02:27:19;;;;;;;;;;;;;;;3.63;100.00;101849.13;5053251;28;19920;-82
2022/12/27 02:29:59;;;;;;;;;;;;;;;3.58;100.00;101859.00;5045174;28;19916;-81
2022/12/27 02:32:24;;;;;;;;;;;;;;;3.55;100.00;101861.78;5046322;28;19938;-81
2022/12/27 02:34:55;;;;;;;;;;;;;;;3.58;100.00;101879.88;5046123;28;19929;-82
2022/12/27 02:37:23;;;;;;;;;;;;;;;3.61;100.00;101879.69;5046551;28;20443;-81
2022/12/27 02:39:49;;;;;;;;;;;;;;;3.63;100.00;101871.81;5044354;28;19916;-82
2022/12/27 02:53:42;;;;;;;;;;;;;;;3.52;100.00;101854.09;5046341;28;19931;-81
2022/12/27 02:59:25;;;;;;;;;;;;;;;3.50;100.00;101848.09;5045835;28;19928;-82
2022/12/27 03:04:43;;;;;;;;;;;;;;;3.60;100.00;101862.38;5046582;28;20011;-81
2022/12/27 03:07:28;;;;;;;;;;;;;;;3.64;100.00;101863.06;5045152;28;19920;-81
2022/12/27 03:15:55;;;;;;;;;;;;;;;3.56;100.00;101863.44;5045738;28;20323;-81
2022/12/27 03:18:36;;;;;;;;;;;;;;;3.58;100.00;101881.66;5046569;28;19921;-81
2022/12/27 03:26:34;;;;;;;;;;;;;;;3.66;100.00;101885.53;5045465;28;19927;-81
2022/12/27 03:34:34;;;;;;;;;;;;;;;3.55;100.00;101887.00;5044669;28;19927;-81
2022/12/27 03:40:19;;;;;;;;;;;;;;;3.48;100.00;101882.13;5045363;28;20005;-81
2022/12/27 03:43:09;;;;;;;;;;;;;;;3.43;100.00;101875.44;5050237;28;19921;-81
2022/12/27 03:48:46;;;;;;;;;;;;;;;3.25;100.00;101883.28;5044392;28;20034;-81
2022/12/27 03:51:13;;;;;;;;;;;;;;;3.21;100.00;101888.72;5043518;28;19921;-81
2022/12/27 03:53:41;;;;;;;;;;;;;;;3.16;100.00;101891.56;5045021;28;19927;-81
2022/12/27 03:56:06;;;;;;;;;;;;;;;3.16;100.00;101891.56;5044912;28;19921;-81
2022/12/27 03:58:32;;;;;;;;;;;;;;;3.14;100.00;101888.19;5044082;28;19943;-81
2022/12/27 04:00:57;;;;;;;;;;;;;;;3.12;100.00;101897.88;5044038;28;19917;-81
2022/12/27 04:03:23;;;;;;;;;;;;;;;3.06;100.00;101893.78;5045269;28;20284;-81
2022/12/27 04:05:48;;;;;;;;;;;;;;;3.06;100.00;101908.59;5045503;28;19921;-81
2022/12/27 04:35:33;;;;;;;;;;;;;;;3.02;100.00;101967.88;5042149;28;20460;-81
2022/12/27 04:37:58;;;;;;;;;;;;;;;3.04;100.00;101973.03;5044994;28;19932;-82
2022/12/27 04:56:54;;;;;;;;;;;;;;;2.87;100.00;101945.13;5043832;28;19971;-81
2022/12/27 05:02:04;;;;;;;;;;;;;;;2.79;100.00;101945.53;5045281;28;19932;-82
2022/12/27 05:04:30;;;;;;;;;;;;;;;2.80;100.00;101944.59;5045785;28;19924;-82
2022/12/27 05:06:56;;;;;;;;;;;;;;;2.78;100.00;101951.63;5048203;28;20007;-82
2022/12/27 05:14:50;;;;;;;;;;;;;;;2.79;100.00;101953.34;5047750;28;20007;-83
2022/12/27 05:17:16;;;;;;;;;;;;;;;2.83;100.00;101954.88;5030484;28;19959;-82
2022/12/27 05:19:41;;;;;;;;;;;;;;;2.83;100.00;101954.88;5029974;28;19934;-82
2022/12/27 05:27:34;;;;;;;;;;;;;;;2.79;100.00;101963.78;5048726;28;20020;-81
2022/12/27 05:29:59;;;;;;;;;;;;;;;2.78;100.00;101962.06;5046844;28;19921;-81
2022/12/27 05:32:26;;;;;;;;;;;;;;;2.75;100.00;101972.66;5045422;28;19928;-81
2022/12/27 05:34:51;;;;;;;;;;;;;;;2.77;100.00;101969.97;5045725;28;19936;-81
2022/12/27 05:37:16;;;;;;;;;;;;;;;2.77;100.00;101985.63;5030504;28;20558;-81
2022/12/27 05:39:42;;;;;;;;;;;;;;;2.78;100.00;101988.13;5045505;28;19944;-82
2022/12/27 05:42:07;;;;;;;;;;;;;;;2.77;100.00;101991.66;5046212;28;20004;-82
2022/12/27 05:44:32;;;;;;;;;;;;;;;2.75;100.00;101987.44;5046773;28;19925;-82
2022/12/27 05:46:57;;;;;;;;;;;;;;;2.73;100.00;101984.91;5036846;28;19947;-82
2022/12/27 05:49:23;;;;;;;;;;;;;;;2.68;100.00;101992.94;5046834;28;20453;-82
2022/12/27 05:51:48;;;;;;;;;;;;;;;2.65;100.00;101997.44;5030134;28;20682;-82
2022/12/27 05:54:13;;;;;;;;;;;;;;;2.53;100.00;101998.03;5047599;28;19990;-82
2022/12/27 05:56:38;;;;;;;;;;;;;;;2.45;100.00;102001.81;5045292;28;19932;-82
2022/12/27 05:59:04;;;;;;;;;;;;;;;2.43;100.00;101998.41;5030169;28;19927;-82
2022/12/27 06:01:29;;;;;;;;;;;;;;;2.39;100.00;102001.22;5045809;28;20323;-82
2022/12/27 06:03:55;;;;;;;;;;;;;;;2.37;100.00;102013.47;5046174;28;19928;-82
2022/12/27 06:06:20;;;;;;;;;;;;;;;2.31;100.00;102012.00;5029184;28;21407;-82
2022/12/27 06:08:45;;;;;;;;;;;;;;;2.30;100.00;102020.72;5029259;28;19979;-82
2022/12/27 06:11:12;;;;;;;;;;;;;;;2.28;100.00;102019.94;5044713;28;19943;-82
2022/12/27 06:13:38;;;;;;;;;;;;;;;2.29;100.00;102031.19;5042012;28;20009;-81
2022/12/27 06:16:04;;;;;;;;;;;;;;;2.32;100.00;102031.91;5035724;28;19936;-82
2022/12/27 06:18:31;;;;;;;;;;;;;;;2.34;100.00;102044.88;5045628;28;19924;-81
2022/12/27 06:21:04;;;;;;;;;;;;;;;2.38;100.00;102046.44;5046126;28;20007;-82
2022/12/27 06:23:29;;;;;;;;;;;;;;;2.40;100.00;102052.44;5044209;28;19994;-81
2022/12/27 06:25:54;;;;;;;;;;;;;;;2.41;100.00;102062.78;5044385;28;20685;-82
2022/12/27 06:28:19;;;;;;;;;;;;;;;2.46;100.00;102055.63;5045934;28;19920;-83
2022/12/27 06:30:45;;;;;;;;;;;;;;;2.51;100.00;102075.41;5043119;28;20587;-81
2022/12/27 06:33:10;;;;;;;;;;;;;;;2.57;100.00;102078.59;5027468;28;19948;-81
2022/12/27 06:35:35;;;;;;;;;;;;;;;2.62;100.00;102081.00;5043226;28;19929;-81
2022/12/27 06:38:00;;;;;;;;;;;;;;;2.66;100.00;102072.97;5028713;28;20011;-81
2022/12/27 06:40:26;;;;;;;;;;;;;;;2.68;100.00;102076.34;5044478;28;20045;-81
2022/12/27 06:42:51;;;;;;;;;;;;;;;2.71;100.00;102074.53;5043510;28;19947;-81
2022/12/27 06:45:16;;;;;;;;;;;;;;;2.77;100.00;102089.91;5043051;28;20086;-81
2022/12/27 06:47:41;;;;;;;;;;;;;;;2.79;100.00;102099.34;5043871;28;20023;-81
2022/12/27 06:50:07;;;;;;;;;;;;;;;2.80;100.00;102098.41;5044961;28;19920;-82
2022/12/27 06:52:32;;;;;;;;;;;;;;;2.79;100.00;102101.94;5044650;28;20744;-81
2022/12/27 06:54:57;;;;;;;;;;;;;;;2.79;100.00;102099.34;5026100;28;19931;-81
2022/12/27 06:57:23;;;;;;;;;;;;;;;2.75;100.00;102105.59;5045319;28;20816;-81
2022/12/27 06:59:48;;;;;;;;;;;;;;;2.75;100.00;102113.44;5027015;28;20973;-82
2022/12/27 07:02:13;;;;;;;;;;;;;;;2.71;100.00;102114.47;5028387;28;20537;-81
2022/12/27 07:04:38;;;;;;;;;;;;;;;2.63;100.00;102104.38;5043705;28;19932;-82
2022/12/27 07:07:04;;;;;;;;;;;;;;;2.59;100.00;102104.56;5047512;28;19925;-80
2022/12/27 07:09:29;;;;;;;;;;;;;;;2.47;100.00;102114.63;5049414;28;19960;-84
2022/12/27 07:11:55;;;;;;;;;;;;;;;2.34;100.00;102113.47;5029102;28;20019;-82
2022/12/27 07:14:20;;;;;;;;;;;;;;;2.28;100.00;102108.50;5045952;28;19932;-83
2022/12/27 07:16:47;;;;;;;;;;;;;;;2.05;100.00;102076.47;5042717;28;20254;-81
2022/12/27 07:19:13;;;;;;;;;;;;;;;2.22;100.00;102116.59;5050975;28;19916;-80
2022/12/27 07:21:38;;;;;;;;;;;;;;;2.21;100.00;102101.88;5051665;28;19931;-81
2022/12/27 07:24:03;;;;;;;;;;;;;;;2.22;100.00;102104.44;5044945;28;20414;-80
2022/12/27 07:26:29;;;;;;;;;;;;;;;2.22;100.00;102103.56;5033208;28;19929;-80
2022/12/27 07:28:55;;;;;;;;;;;;;;;2.16;100.00;102109.06;5045997;28;19929;-82
2022/12/27 07:31:25;;;;;;;;;;;;;;;2.17;100.00;102100.31;5044776;28;20619;-81
2022/12/27 07:33:50;;;;;;;;;;;;;;;2.14;100.00;102116.09;5045699;28;20567;-81
2022/12/27 07:36:17;;;;;;;;;;;;;;;2.12;100.00;102117.91;5045944;28;19924;-81
2022/12/27 07:38:43;;;;;;;;;;;;;;;2.16;100.00;102129.88;5046126;28;20308;-81
2022/12/27 07:41:09;;;;;;;;;;;;;;;2.18;100.00;102130.66;5045667;28;19963;-82
2022/12/27 07:43:34;;;;;;;;;;;;;;;2.25;100.00;102150.34;5042758;28;19921;-81
2022/12/27 07:46:03;;;;;;;;;;;;;;;2.24;100.00;102148.63;5043988;28;19928;-81
2022/12/27 07:48:29;;;;;;;;;;;;;;;2.28;100.00;102154.56;5044916;28;19962;-80
2022/12/27 07:50:54;;;;;;;;;;;;;;;2.35;100.00;102166.41;5044868;28;19928;-82
2022/12/27 07:53:20;;;;;;;;;;;;;;;2.32;100.00;102154.38;5044259;28;19916;-81
2022/12/27 07:55:45;;;;;;;;;;;;;;;2.32;100.00;102164.78;5044322;28;20538;-82
2022/12/27 07:58:11;;;;;;;;;;;;;;;2.31;100.00;102170.06;5060761;28;19929;-79
2022/12/27 08:00:36;;;;;;;;;;;;;;;2.21;100.00;102174.81;5057322;28;20743;-82
2022/12/27 08:03:02;;;;;;;;;;;;;;;2.20;100.00;102175.72;5026487;28;20019;-82
2022/12/27 08:05:27;;;;;;;;;;;;;;;2.16;100.00;102176.78;5044218;28;20004;-82
2022/12/27 08:07:53;;;;;;;;;;;;;;;2.15;100.00;102175.91;5043472;28;19920;-82
2022/12/27 08:10:18;;;;;;;;;;;;;;;2.11;100.00;102173.50;5042828;28;19975;-81
2022/12/27 08:12:43;;;;;;;;;;;;;;;2.15;100.00;102188.91;5044176;28;20034;-81
2022/12/27 08:15:10;;;;;;;;;;;;;;;2.15;100.00;102183.72;5041389;28;19924;-82
2022/12/27 08:17:35;;;;;;;;;;;;;;;2.12;100.00;102185.63;5042960;28;20023;-81
2022/12/27 08:20:01;;;;;;;;;;;;;;;2.16;100.00;102176.78;5042958;28;20023;-82
2022/12/27 08:22:26;;;;;;;;;;;;;;;2.19;100.00;102192.25;5042956;28;20820;-81
2022/12/27 08:24:52;;;;;;;;;;;;;;;2.16;100.00;102189.78;5042198;28;19927;-82
2022/12/27 08:27:21;;;;;;;;;;;;;;;2.09;100.00;102180.50;5041733;28;19979;-82
2022/12/27 08:29:46;;;;;;;;;;;;;;;2.24;100.00;102191.19;5042707;28;19923;-80
2022/12/27 08:32:12;;;;;;;;;;;;;;;2.32;100.00;102193.44;5042007;28;19917;-82
2022/12/27 08:34:37;;;;;;;;;;;;;;;2.39;100.00;102184.44;5042066;28;20641;-80
2022/12/27 08:37:02;;;;;;;;;;;;;;;2.61;100.00;102184.41;5044611;28;19978;-81
2022/12/27 08:39:28;;;;;;;;;;;;;;;2.63;100.00;102197.38;5046051;28;19927;-80
2022/12/27 08:41:54;;;;;;;;;;;;;;;2.66;100.00;102184.22;5048052;28;19921;-81
2022/12/27 08:44:19;;;;;;;;;;;;;;;2.68;100.00;102196.28;5046172;28;19923;-81
2022/12/27 08:46:44;;;;;;;;;;;;;;;2.80;100.00;102194.03;5053222;28;19920;-81
2022/12/27 08:49:10;;;;;;;;;;;;;;;2.97;100.00;102198.53;5047743;28;19920;-81
2022/12/27 08:51:35;;;;;;;;;;;;;;;3.14;100.00;102196.00;5045227;28;19925;-81
2022/12/27 08:54:00;;;;;;;;;;;;;;;3.35;100.00;102188.13;5045326;28;20011;-81
2022/12/27 08:56:26;;;;;;;;;;;;;;;3.32;100.00;102183.06;5045566;28;19924;-81
2022/12/27 08:58:51;;;;;;;;;;;;;;;3.34;100.00;102181.22;5044258;28;20291;-81
2022/12/27 09:01:17;;;;;;;;;;;;;;;3.37;100.00;102174.09;5046758;28;20035;-81
2022/12/27 09:03:43;;;;;;;;;;;;;;;3.44;100.00;102179.88;5046453;28;19924;-80
2022/12/27 09:06:16;;;;;;;;;;;;;;;3.60;100.00;102185.22;5045434;28;19924;-81
2022/12/27 09:08:42;;;;;;;;;;;;;;;3.89;100.00;102186.44;5053415;28;20479;-81
2022/12/27 09:11:10;;;;;;;;;;;;;;;4.15;100.00;102186.97;5045383;28;19962;-81
2022/12/27 09:13:35;;;;;;;;;;;;;;;4.25;100.00;102180.38;5045768;28;19916;-81
2022/12/27 09:16:03;;;;;;;;;;;;;;;4.82;100.00;102183.53;5045524;28;19977;-81
2022/12/27 09:18:29;;;;;;;;;;;;;;;4.59;100.00;102182.09;5052799;28;19925;-81
2022/12/27 09:20:54;;;;;;;;;;;;;;;4.58;100.00;102179.59;5029499;28;19962;-82
2022/12/27 09:23:19;;;;;;;;;;;;;;;4.81;100.00;102181.00;5045593;28;19959;-81
2022/12/27 09:25:44;;;;;;;;;;;;;;;4.73;100.00;102178.78;5030318;28;19924;-81
2022/12/27 09:28:10;;;;;;;;;;;;;;;4.83;100.00;102172.13;5028444;28;20667;-81
2022/12/27 09:30:35;;;;;;;;;;;;;;;4.93;100.00;102170.75;5045540;28;19932;-81
2022/12/27 09:33:00;;;;;;;;;;;;;;;5.17;100.00;102175.59;5046404;28;19920;-81
2022/12/27 09:35:25;;;;;;;;;;;;;;;6.10;100.00;102169.59;5044980;28;20022;-81
2022/12/27 09:37:51;;;;;;;;;;;;;;;7.18;100.00;102160.53;5036432;28;19924;-81
2022/12/27 09:40:18;;;;;;;;;;;;;;;8.17;100.00;102158.53;5045723;28;20639;-82
2022/12/27 09:42:54;;;;;;;;;;;;;;;8.76;100.00;102165.97;5046083;28;19916;-82
2022/12/27 09:45:21;;;;;;;;;;;;;;;10.05;100.00;102163.78;5044864;28;19931;-82
2022/12/27 09:47:50;;;;;;;;;;;;;;;11.31;100.00;102162.88;5047199;28;19924;-83
2022/12/27 09:50:23;;;;;;;;;;;;;;;11.92;100.00;102151.78;5047289;28;20020;-80
2022/12/27 09:53:07;;;;;;;;;;;;;;;13.16;100.00;102158.06;5045757;28;20717;-82
2022/12/27 09:55:46;;;;;;;;;;;;;;;13.90;93.61;102167.44;5046887;28;19924;-81
2022/12/27 09:58:12;;;;;;;;;;;;;;;14.95;84.50;102174.53;5045571;28;20607;-81
2022/12/27 10:00:37;;;;;;;;;;;;;;;15.62;82.38;102175.97;5043810;28;20561;-81
2022/12/27 10:03:03;;;;;;;;;;;;;;;16.90;78.66;102178.31;5025500;28;19924;-81
2022/12/27 10:05:31;;;;;;;;;;;;;;;17.33;72.77;102171.16;5042315;28;19963;-81
2022/12/27 10:08:19;;;;;;;;;;;;;;;16.81;64.74;102175.63;5059939;28;20776;-81
2022/12/27 10:10:55;;;;;;;;;;;;;;;16.59;61.07;102174.31;5044751;28;20312;-81
2022/12/27 10:13:30;;;;;;;;;;;;;;;15.93;64.72;102182.78;5043135;28;19954;-81
2022/12/27 10:16:18;;;;;;;;;;;;;;;15.64;64.08;102181.97;5044620;28;19920;-81
2022/12/27 10:19:02;;;;;;;;;;;;;;;16.04;67.38;102182.56;5030712;28;19920;-81
2022/12/27 10:21:28;;;;;;;;;;;;;;;16.75;66.95;102194.88;5044360;28;20762;-81
2022/12/27 10:23:59;;;;;;;;;;;;;;;15.48;64.15;102197.75;5042762;28;19924;-83
2022/12/27 10:26:24;;;;;;;;;;;;;;;15.77;66.09;102191.47;5044196;28;19963;-82
2022/12/27 10:29:09;;;;;;;;;;;;;;;16.20;64.71;102193.34;5044960;28;20021;-82
2022/12/27 10:31:38;;;;;;;;;;;;;;;14.43;69.61;102193.53;5043521;28;20716;-82
2022/12/27 10:34:04;;;;;;;;;;;;;;;15.96;76.97;102195.78;5046160;28;19920;-82
2022/12/27 10:36:29;;;;;;;;;;;;;;;14.94;69.11;102189.66;5040663;28;20763;-81
2022/12/27 10:38:55;;;;;;;;;;;;;;;14.26;70.83;102197.72;5043970;28;19935;-82
2022/12/27 10:41:20;;;;;;;;;;;;;;;10.32;87.89;102191.72;5044819;28;19955;-82
2022/12/27 10:43:49;;;;;;;;;;;;;;;9.42;100.00;102192.09;5043395;28;19943;-81
2022/12/27 10:46:15;;;;;;;;;;;;;;;8.24;100.00;102191.34;5043405;28;20208;-81
2022/12/27 10:48:52;;;;;;;;;;;;;;;8.02;100.00;102186.66;5043200;28;20704;-81
2022/12/27 10:51:17;;;;;;;;;;;;;;;7.37;100.00;102204.88;5045157;28;19921;-82
2022/12/27 10:53:56;;;;;;;;;;;;;;;7.28;100.00;102205.44;5046927;28;19927;-81
2022/12/27 10:56:28;;;;;;;;;;;;;;;7.66;100.00;102205.66;5046062;28;19963;-81
2022/12/27 10:59:06;;;;;;;;;;;;;;;8.04;100.00;102204.97;5045103;28;19923;-81
2022/12/27 11:01:32;;;;;;;;;;;;;;;7.86;100.00;102208.78;5043436;28;19921;-82
2022/12/27 11:04:08;;;;;;;;;;;;;;;7.58;100.00;102205.31;5047084;28;19916;-82
2022/12/27 11:06:34;;;;;;;;;;;;;;;7.72;100.00;102209.69;5044695;28;20715;-82
2022/12/27 11:09:16;;;;;;;;;;;;;;;7.73;100.00;102209.59;5044237;28;19920;-81
2022/12/27 11:11:41;;;;;;;;;;;;;;;6.91;100.00;102213.78;5044116;28;19920;-81
2022/12/27 11:14:10;;;;;;;;;;;;;;;6.56;100.00;102216.72;5043917;28;20808;-82
2022/12/27 11:16:36;;;;;;;;;;;;;;;6.64;100.00;102211.03;5043451;28;19940;-82
2022/12/27 11:19:02;;;;;;;;;;;;;;;6.96;100.00;102213.50;5045329;28;20272;-82
2022/12/27 11:21:28;;;;;;;;;;;;;;;7.26;100.00;102218.66;5045095;28;19962;-82
2022/12/27 11:23:55;;;;;;;;;;;;;;;7.69;100.00;102210.72;5044277;28;20745;-82
2022/12/27 11:26:26;;;;;;;;;;;;;;;8.10;100.00;102209.84;5044176;28;19998;-83
2022/12/27 11:28:53;;;;;;;;;;;;;;;7.97;100.00;102214.19;5045925;28;19920;-81
2022/12/27 11:31:26;;;;;;;;;;;;;;;8.13;100.00;102198.28;5044281;28;19917;-81
2022/12/27 11:33:56;;;;;;;;;;;;;;;8.01;100.00;102206.03;5050745;28;20064;-81
2022/12/27 11:36:30;;;;;;;;;;;;;;;7.91;100.00;102209.34;5044675;28;20067;-81
2022/12/27 11:38:56;;;;;;;;;;;;;;;7.82;100.00;102214.25;5044380;28;19959;-82
2022/12/27 11:41:30;;;;;;;;;;;;;;;7.82;100.00;102216.03;5044561;28;20042;-81
2022/12/27 11:44:04;;;;;;;;;;;;;;;7.82;100.00;102211.63;5044229;28;19927;-82
2022/12/27 11:46:37;;;;;;;;;;;;;;;7.50;100.00;102221.53;5041293;28;20767;-81
2022/12/27 11:49:05;;;;;;;;;;;;;;;7.31;100.00;102221.00;5040139;28;19960;-81
2022/12/27 11:51:37;;;;;;;;;;;;;;;7.39;100.00;102222.22;5040665;28;20028;-81
2022/12/27 11:54:11;;;;;;;;;;;;;;;7.31;100.00;102221.00;5044507;28;19968;-81
2022/12/27 11:56:43;;;;;;;;;;;;;;;6.98;100.00;102216.88;5042127;28;19963;-80
2022/12/27 11:59:20;;;;;;;;;;;;;;;7.03;100.00;102221.84;5043122;28;19917;-81
2022/12/27 12:02:05;;;;;;;;;;;;;;;6.87;100.00;102204.41;5042975;28;19928;-82
2022/12/27 12:04:30;;;;;;;;;;;;;;;6.62;100.00;102220.78;5041586;28;19923;-82
2022/12/27 12:07:20;;;;;;;;;;;;;;;6.37;100.00;102203.84;5042694;28;19924;-82
2022/12/27 12:10:00;;;;;;;;;;;;;;;6.56;100.00;102211.47;5050676;28;19923;-82
2022/12/27 12:12:34;;;;;;;;;;;;;;;6.37;100.00;102187.25;5045138;28;19990;-81
2022/12/27 12:15:18;;;;;;;;;;;;;;;6.29;100.00;102194.72;5043890;28;19936;-80
2022/12/27 12:17:58;;;;;;;;;;;;;;;6.10;100.00;102193.19;5045388;28;19977;-81
2022/12/27 12:20:27;;;;;;;;;;;;;;;5.98;100.00;102186.00;5042765;28;20636;-79
2022/12/27 12:23:01;;;;;;;;;;;;;;;6.10;100.00;102174.84;5044055;28;19917;-79
2022/12/27 12:25:44;;;;;;;;;;;;;;;6.08;100.00;102176.69;5050870;28;19970;-80
2022/12/27 12:28:16;;;;;;;;;;;;;;;6.04;100.00;102175.19;5043743;28;20704;-78
2022/12/27 12:30:44;;;;;;;;;;;;;;;6.10;100.00;102168.75;5045292;28;19959;-81
2022/12/27 12:33:22;;;;;;;;;;;;;;;6.04;100.00;102174.34;5044213;28;19924;-81
2022/12/27 12:35:47;;;;;;;;;;;;;;;6.09;100.00;102173.13;5043684;28;19924;-80
2022/12/27 12:38:13;;;;;;;;;;;;;;;5.99;100.00;102166.75;5042190;28;19916;-80
2022/12/27 12:40:57;;;;;;;;;;;;;;;5.93;100.00;102164.44;5049804;28;20029;-80
2022/12/27 12:43:22;;;;;;;;;;;;;;;6.07;100.00;102161.88;5041793;28;20027;-80
2022/12/27 12:46:02;;;;;;;;;;;;;;;6.12;100.00;102162.47;5040505;28;20164;-80
2022/12/27 12:48:33;;;;;;;;;;;;;;;6.14;100.00;102160.63;5041532;28;19921;-80
2022/12/27 12:51:07;;;;;;;;;;;;;;;6.21;100.00;102162.91;5042563;28;19917;-80
2022/12/27 12:54:11;;;;;;;;;;;;;;;6.15;100.00;102162.28;5040984;28;19917;-80
2022/12/27 12:56:55;;;;;;;;;;;;;;;6.20;100.00;102167.25;4952162;28;20863;-80
2022/12/27 12:59:37;;;;;;;;;;;;;;;5.97;100.00;102158.13;4968962;28;19991;-80
2022/12/27 13:02:03;;;;;;;;;;;;;;;5.94;100.00;102158.25;4969600;28;20160;-81
2022/12/27 13:04:32;;;;;;;;;;;;;;;5.91;100.00;102153.19;4953234;28;19922;-81
2022/12/27 13:06:58;;;;;;;;;;;;;;;5.78;100.00;102143.41;4970199;28;19918;-81
2022/12/27 13:09:26;;;;;;;;;;;;;;;5.77;100.00;102149.59;4969924;28;19998;-80
2022/12/27 13:12:06;;;;;;;;;;;;;;;5.69;100.00;102141.31;4954114;28;20340;-81
2022/12/27 13:14:37;;;;;;;;;;;;;;;5.72;100.00;102138.50;4969550;28;19956;-81
2022/12/27 13:17:05;;;;;;;;;;;;;;;5.75;100.00;102130.50;4968659;28;19925;-80
2022/12/27 13:19:40;;;;;;;;;;;;;;;5.76;100.00;102133.94;4952759;28;19921;-81
2022/12/27 13:22:11;;;;;;;;;;;;;;;5.76;100.00;102129.56;4954290;28;19910;-80
2022/12/27 13:24:42;;;;;;;;;;;;;;;5.77;100.00;102118.16;4957669;28;20047;-80
2022/12/27 13:27:13;;;;;;;;;;;;;;;5.76;100.00;102123.47;5000138;28;19954;-81
2022/12/27 13:30:02;;;;;;;;;;;;;;;5.70;100.00;102115.97;5043465;28;20006;-80
2022/12/27 13:32:37;;;;;;;;;;;;;;;5.55;100.00;102108.06;5030928;28;19916;-80
2022/12/27 13:35:23;;;;;;;;;;;;;;;5.55;100.00;102109.81;5045577;28;20383;-80
2022/12/27 13:37:48;;;;;;;;;;;;;;;5.46;100.00;102110.34;5052238;28;19917;-79
2022/12/27 13:40:16;;;;;;;;;;;;;;;5.45;100.00;102101.63;5046551;28;19913;-79
2022/12/27 13:43:00;;;;;;;;;;;;;;;5.44;100.00;102106.94;5044476;28;19916;-80
2022/12/27 13:45:25;;;;;;;;;;;;;;;5.32;100.00;102104.09;5043858;28;20059;-79
2022/12/27 13:48:04;;;;;;;;;;;;;;;5.23;100.00;102102.00;5045358;28;19933;-78
2022/12/27 13:50:33;;;;;;;;;;;;;;;5.17;100.00;102097.09;5046371;28;19960;-80
2022/12/27 13:53:16;;;;;;;;;;;;;;;5.09;100.00;102096.66;5043525;28;19975;-78
2022/12/27 13:55:53;;;;;;;;;;;;;;;5.05;100.00;102105.59;5045595;28;20017;-79
2022/12/27 13:58:21;;;;;;;;;;;;;;;4.97;100.00;102098.19;5043617;28;19920;-79
2022/12/27 14:01:02;;;;;;;;;;;;;;;4.97;100.00;102102.56;5042913;28;20295;-80
2022/12/27 14:03:46;;;;;;;;;;;;;;;4.93;100.00;102097.47;5051881;28;19916;-80
2022/12/27 14:06:12;;;;;;;;;;;;;;;4.90;100.00;102096.78;5045619;28;19928;-82
2022/12/27 14:08:37;;;;;;;;;;;;;;;4.80;100.00;102101.69;5046432;28;20506;-83
2022/12/27 14:11:12;;;;;;;;;;;;;;;4.79;100.00;102107.88;5044963;28;19917;-80
2022/12/27 14:13:40;;;;;;;;;;;;;;;4.81;100.00;102105.13;5050437;28;19969;-78
2022/12/27 14:16:11;;;;;;;;;;;;;;;4.80;100.00;102101.69;5044125;28;19921;-79
2022/12/27 14:18:59;;;;;;;;;;;;;;;4.78;100.00;102103.53;5041497;28;19932;-79
2022/12/27 14:21:24;;;;;;;;;;;;;;;4.78;100.00;102108.78;5042980;28;19923;-79
2022/12/27 14:23:52;;;;;;;;;;;;;;;4.76;100.00;102100.16;5044600;28;20012;-79
2022/12/27 14:26:36;;;;;;;;;;;;;;;4.72;100.00;102101.25;5042449;28;19920;-78